createdAt,value
2023-03-23T00:03:23.612Z,604.00
2023-03-23T00:07:23.740Z,606.00
2023-03-23T00:11:23.935Z,627.00
2023-03-23T00:15:24.132Z,634.00
2023-03-23T00:19:26.148Z,637.00
2023-03-23T00:23:24.275Z,656.00
2023-03-23T00:27:24.270Z,659.00
2023-03-23T00:31:24.219Z,677.00
2023-03-23T00:35:24.191Z,683.00
2023-03-23T00:39:24.127Z,663.00
2023-03-23T00:43:24.096Z,653.00
2023-03-23T00:47:24.053Z,646.00
2023-03-23T00:51:24.028Z,657.00
2023-03-23T00:55:24.180Z,666.00
2023-03-23T00:59:24.136Z,666.00
2023-03-23T01:03:24.114Z,657.00
2023-03-23T01:07:24.083Z,640.00
2023-03-23T01:11:24.046Z,632.00
2023-03-23T01:15:23.997Z,643.00
2023-03-23T01:19:23.944Z,641.00
2023-03-23T01:23:23.922Z,649.00
2023-03-23T01:27:23.965Z,660.00
2023-03-23T01:31:23.831Z,655.00
2023-03-23T01:35:23.967Z,640.00
2023-03-23T01:39:23.919Z,633.00
2023-03-23T01:43:23.902Z,626.00
2023-03-23T01:47:23.835Z,622.00
2023-03-23T01:51:30.686Z,635.00
2023-03-23T01:55:24.792Z,639.00
2023-03-23T01:59:23.771Z,618.00
2023-03-23T02:03:23.892Z,625.00
2023-03-23T02:07:23.966Z,625.00
2023-03-23T02:11:23.980Z,618.00
2023-03-23T02:15:24.033Z,650.00
2023-03-23T02:19:23.981Z,692.00
2023-03-23T02:23:23.957Z,704.00
2023-03-23T02:27:23.933Z,667.00
2023-03-23T02:31:23.938Z,663.00
2023-03-23T02:35:23.928Z,652.00
2023-03-23T02:39:23.896Z,649.00
2023-03-23T02:43:23.922Z,651.00
2023-03-23T02:47:25.039Z,658.00
2023-03-23T02:51:23.811Z,665.00
2023-03-23T02:55:23.788Z,716.00
2023-03-23T02:59:23.730Z,756.00
2023-03-23T03:03:23.701Z,754.00
2023-03-23T03:07:23.671Z,741.00
2023-03-23T03:11:23.634Z,752.00
2023-03-23T03:15:23.565Z,731.00
2023-03-23T03:19:23.573Z,743.00
2023-03-23T03:23:23.520Z,798.00
2023-03-23T03:27:23.493Z,808.00
2023-03-23T03:31:23.443Z,798.00
2023-03-23T03:35:23.444Z,798.00
2023-03-23T03:39:23.371Z,776.00
2023-03-23T03:43:23.333Z,769.00
2023-03-23T03:47:23.386Z,734.00
2023-03-23T03:51:23.346Z,749.00
2023-03-23T03:55:23.427Z,733.00
2023-03-23T03:59:23.414Z,721.00
2023-03-23T04:03:23.477Z,716.00
2023-03-23T04:07:23.925Z,756.00
2023-03-23T04:11:33.104Z,750.00
2023-03-23T04:15:24.496Z,762.00
2023-03-23T04:19:23.437Z,776.00
2023-03-23T04:23:23.447Z,804.00
2023-03-23T04:27:23.366Z,819.00
2023-03-23T04:31:23.357Z,810.00
2023-03-23T04:35:23.379Z,749.00
2023-03-23T04:39:23.467Z,696.00
2023-03-23T04:43:23.630Z,657.00
2023-03-23T04:47:23.726Z,677.00
2023-03-23T04:51:23.873Z,782.00
2023-03-23T04:55:24.024Z,878.00
2023-03-23T04:59:24.179Z,935.00
2023-03-23T05:03:24.287Z,988.00
2023-03-23T05:07:24.453Z,1003.00
2023-03-23T05:11:24.649Z,1007.00
2023-03-23T05:15:24.831Z,1023.00
2023-03-23T05:19:25.013Z,1006.00
2023-03-23T05:23:25.144Z,981.00
2023-03-23T05:27:25.329Z,1037.00
2023-03-23T05:31:25.482Z,1085.00
2023-03-23T05:35:25.682Z,1118.00
2023-03-23T05:39:25.847Z,1199.00
2023-03-23T05:43:26.037Z,1219.00
2023-03-23T05:47:26.252Z,1226.00
2023-03-23T05:51:26.482Z,1237.00
2023-03-23T05:55:26.694Z,1266.00
2023-03-23T05:59:26.616Z,1252.00
2023-03-23T06:03:26.600Z,1228.00
2023-03-23T06:07:26.583Z,1246.00
2023-03-23T06:11:26.548Z,1271.00
2023-03-23T06:15:26.482Z,1254.00
2023-03-23T06:19:26.476Z,1292.00
2023-03-23T06:23:26.423Z,1341.00
2023-03-23T06:27:26.403Z,1318.00
2023-03-23T06:31:26.327Z,1314.00
2023-03-23T06:35:26.328Z,1319.00
2023-03-23T06:39:26.446Z,1341.00
2023-03-23T06:43:26.357Z,1393.00
2023-03-23T06:47:26.531Z,1505.00
2023-03-23T06:51:26.581Z,1586.00
2023-03-23T06:55:26.944Z,1716.00
2023-03-23T06:59:27.453Z,1699.00
2023-03-23T07:03:27.138Z,1923.00
2023-03-23T07:07:27.329Z,2143.00
2023-03-23T07:11:27.355Z,2337.00
2023-03-23T07:15:27.494Z,2681.00
2023-03-23T07:19:27.367Z,2836.00
2023-03-23T07:23:27.339Z,2855.00
2023-03-23T07:27:27.303Z,3022.00
2023-03-23T07:31:27.253Z,3087.00
2023-03-23T07:35:27.498Z,3191.00
2023-03-23T07:39:27.205Z,3254.00
2023-03-23T07:43:27.474Z,3316.00
2023-03-23T07:47:34.278Z,3375.00
2023-03-23T07:51:28.535Z,3379.00
2023-03-23T07:55:27.227Z,3256.00
2023-03-23T07:59:27.250Z,3196.00
2023-03-23T08:03:27.456Z,3116.00
2023-03-23T08:07:27.289Z,3034.00
2023-03-23T08:11:27.492Z,2973.00
2023-03-23T08:15:27.355Z,2922.00
2023-03-23T08:19:27.414Z,2849.00
2023-03-23T08:23:27.510Z,2822.00
2023-03-23T08:27:27.533Z,2778.00
2023-03-23T08:31:27.577Z,2716.00
2023-03-23T08:35:28.007Z,2660.00
2023-03-23T08:39:27.777Z,2628.00
2023-03-23T08:43:28.000Z,2574.00
2023-03-23T08:47:28.011Z,2569.00
2023-03-23T08:51:28.055Z,2587.00
2023-03-23T08:55:27.881Z,2556.00
2023-03-23T08:59:27.981Z,2544.00
2023-03-23T09:03:28.616Z,2585.00
2023-03-23T09:07:28.492Z,2669.00
2023-03-23T09:11:28.440Z,2787.00
2023-03-23T09:15:34.115Z,2809.00
2023-03-23T09:19:29.528Z,2834.00
2023-03-23T09:23:28.481Z,2907.00
2023-03-23T09:27:28.417Z,2960.00
2023-03-23T09:31:28.420Z,2986.00
2023-03-23T09:35:28.338Z,3002.00
2023-03-23T09:39:28.542Z,2876.00
2023-03-23T09:43:29.005Z,2732.00
2023-03-23T09:47:28.791Z,2683.00
2023-03-23T09:51:29.018Z,2591.00
2023-03-23T09:55:29.581Z,2083.00
2023-03-23T09:59:29.118Z,2211.00
2023-03-23T10:03:29.525Z,2177.00
2023-03-23T10:07:29.297Z,2127.00
2023-03-23T10:11:29.288Z,2133.00
2023-03-23T10:15:29.261Z,2126.00
2023-03-23T10:19:29.218Z,2152.00
2023-03-23T10:23:29.553Z,2178.00
2023-03-23T10:27:29.143Z,2239.00
2023-03-23T10:31:29.094Z,2311.00
2023-03-23T10:35:30.765Z,2398.00
2023-03-23T10:39:29.052Z,2472.00
2023-03-23T10:43:29.105Z,2540.00
2023-03-23T10:47:29.540Z,2528.00
2023-03-23T10:51:29.541Z,2461.00
2023-03-23T10:55:29.560Z,2296.00
2023-03-23T10:59:29.459Z,2191.00
2023-03-23T11:03:29.594Z,2070.00
2023-03-23T11:07:29.796Z,1919.00
2023-03-23T11:11:29.945Z,1519.00
2023-03-23T11:15:30.552Z,1542.00
2023-03-23T11:19:30.129Z,1182.00
2023-03-23T11:23:30.554Z,1157.00
2023-03-23T11:27:30.180Z,785.00
2023-03-23T11:31:30.038Z,525.00
2023-03-23T11:35:30.032Z,440.00
2023-03-23T11:39:29.966Z,532.00
2023-03-23T11:43:30.924Z,1197.00
2023-03-23T11:47:30.096Z,1502.00
2023-03-23T11:51:29.890Z,1694.00
2023-03-23T11:55:31.201Z,1821.00
2023-03-23T11:59:29.794Z,1934.00
2023-03-23T12:03:29.759Z,2015.00
2023-03-23T12:07:30.067Z,2076.00
2023-03-23T12:11:29.668Z,2129.00
2023-03-23T12:15:29.627Z,2196.00
2023-03-23T12:19:29.683Z,2258.00
2023-03-23T12:23:30.099Z,2298.00
2023-03-23T12:27:29.809Z,2351.00
2023-03-23T12:31:29.812Z,2380.00
2023-03-23T12:35:30.067Z,2409.00
2023-03-23T12:39:30.065Z,2397.00
2023-03-23T12:43:29.861Z,2393.00
2023-03-23T12:47:30.082Z,2392.00
2023-03-23T12:51:29.986Z,2393.00
2023-03-23T12:55:30.102Z,2366.00
2023-03-23T12:59:30.212Z,2350.00
2023-03-23T13:03:30.288Z,2341.00
2023-03-23T13:07:30.339Z,2311.00
2023-03-23T13:11:30.616Z,2298.00
2023-03-23T13:15:30.538Z,2276.00
2023-03-23T13:19:30.595Z,2240.00
2023-03-23T13:23:31.108Z,2229.00
2023-03-23T13:27:31.082Z,2209.00
2023-03-23T13:31:30.617Z,2194.00
2023-03-23T13:35:31.106Z,2182.00
2023-03-23T13:39:30.691Z,2169.00
2023-03-23T13:43:30.792Z,2167.00
2023-03-23T13:47:31.018Z,2151.00
2023-03-23T13:51:30.975Z,2150.00
2023-03-23T13:55:30.933Z,2139.00
2023-03-23T13:59:30.899Z,2126.00
2023-03-23T14:03:30.888Z,2112.00
2023-03-23T14:07:30.820Z,2111.00
2023-03-23T14:11:30.778Z,2095.00
2023-03-23T14:15:30.842Z,2074.00
2023-03-23T14:19:31.140Z,2058.00
2023-03-23T14:23:30.676Z,2062.00
2023-03-23T14:27:30.647Z,2033.00
2023-03-23T14:31:30.593Z,2023.00
2023-03-23T14:35:30.552Z,2014.00
2023-03-23T14:39:30.525Z,2013.00
2023-03-23T14:43:30.492Z,2011.00
2023-03-23T14:47:30.477Z,2005.00
2023-03-23T14:51:30.432Z,2030.00
2023-03-23T14:55:30.390Z,2090.00
2023-03-23T14:59:30.630Z,2110.00
2023-03-23T15:03:30.301Z,2076.00
2023-03-23T15:07:30.645Z,2076.00
2023-03-23T15:11:30.634Z,2060.00
2023-03-23T15:15:30.186Z,2033.00
2023-03-23T15:19:30.154Z,2017.00
2023-03-23T15:23:30.123Z,2029.00
2023-03-23T15:27:30.093Z,2007.00
2023-03-23T15:31:30.159Z,1968.00
2023-03-23T15:35:30.224Z,1942.00
2023-03-23T15:39:30.251Z,1944.00
2023-03-23T15:43:30.316Z,1919.00
2023-03-23T15:47:30.319Z,1908.00
2023-03-23T15:51:30.324Z,1907.00
2023-03-23T15:55:30.391Z,1903.00
2023-03-23T15:59:30.454Z,1895.00
2023-03-23T16:03:30.525Z,1863.00
2023-03-23T16:07:30.646Z,1868.00
2023-03-23T16:11:30.737Z,1848.00
2023-03-23T16:15:30.857Z,1828.00
2023-03-23T16:19:30.968Z,1826.00
2023-03-23T16:23:31.210Z,1815.00
2023-03-23T16:27:31.228Z,1806.00
2023-03-23T16:31:31.374Z,1796.00
2023-03-23T16:35:31.555Z,1771.00
2023-03-23T16:39:31.701Z,1771.00
2023-03-23T16:43:31.840Z,1759.00
2023-03-23T16:47:32.114Z,1743.00
2023-03-23T16:51:32.207Z,1739.00
2023-03-23T16:55:32.460Z,1722.00
2023-03-23T16:59:32.619Z,1706.00
2023-03-23T17:03:32.910Z,1693.00
2023-03-23T17:07:33.190Z,1685.00
2023-03-23T17:11:32.778Z,1689.00
2023-03-23T17:15:32.746Z,1678.00
2023-03-23T17:19:32.698Z,1664.00
2023-03-23T17:23:32.679Z,1655.00
2023-03-23T17:27:32.630Z,1644.00
2023-03-23T17:31:32.656Z,1636.00
2023-03-23T17:35:32.572Z,1628.00
2023-03-23T17:39:32.686Z,1617.00
2023-03-23T17:43:33.665Z,1623.00
2023-03-23T17:47:32.659Z,1608.00
2023-03-23T17:51:32.725Z,1599.00
2023-03-23T17:55:32.906Z,1601.00
2023-03-23T17:59:33.116Z,1586.00
2023-03-23T18:03:33.249Z,1587.00
2023-03-23T18:07:33.341Z,1588.00
2023-03-23T18:11:33.481Z,1571.00
2023-03-23T18:15:33.629Z,1566.00
2023-03-23T18:19:33.628Z,1561.00
2023-03-23T18:23:33.619Z,1558.00
2023-03-23T18:27:33.775Z,1554.00
2023-03-23T18:31:33.684Z,1532.00
2023-03-23T18:35:33.635Z,1532.00
2023-03-23T18:39:33.637Z,1524.00
2023-03-23T18:43:33.642Z,1523.00
2023-03-23T18:47:33.652Z,1511.00
2023-03-23T18:51:33.592Z,1502.00
2023-03-23T18:55:33.583Z,1486.00
2023-03-23T18:59:33.525Z,1487.00
2023-03-23T19:03:33.558Z,1486.00
2023-03-23T19:07:33.490Z,1476.00
2023-03-23T19:11:33.510Z,1471.00
2023-03-23T19:15:33.535Z,1469.00
2023-03-23T19:19:34.185Z,1448.00
2023-03-23T19:23:33.461Z,1453.00
2023-03-23T19:27:33.420Z,1438.00
2023-03-23T19:31:33.818Z,1427.00
2023-03-23T19:35:33.451Z,1423.00
2023-03-23T19:39:33.424Z,1422.00
2023-03-23T19:43:33.727Z,1414.00
2023-03-23T19:47:33.512Z,1401.00
2023-03-23T19:51:33.437Z,1408.00
2023-03-23T19:55:33.496Z,1388.00
2023-03-23T19:59:33.651Z,1392.00
2023-03-23T20:03:33.553Z,1389.00
2023-03-23T20:07:33.511Z,1371.00
2023-03-23T20:11:34.299Z,1372.00
2023-03-23T20:15:33.477Z,1358.00
2023-03-23T20:19:33.557Z,1358.00
2023-03-23T20:23:33.541Z,1343.00
2023-03-23T20:27:33.480Z,1335.00
2023-03-23T20:31:36.514Z,1339.00
2023-03-23T20:35:33.409Z,1330.00
2023-03-23T20:39:33.423Z,1321.00
2023-03-23T20:43:33.394Z,1329.00
2023-03-23T20:47:33.319Z,1310.00
2023-03-23T20:51:33.289Z,1309.00
2023-03-23T20:55:33.274Z,1288.00
2023-03-23T20:59:33.244Z,1288.00
2023-03-23T21:03:33.199Z,1275.00
2023-03-23T21:07:33.156Z,1273.00
2023-03-23T21:11:33.135Z,1286.00
2023-03-23T21:15:33.085Z,1264.00
2023-03-23T21:19:33.035Z,1259.00
2023-03-23T21:23:32.993Z,1249.00
2023-03-23T21:27:33.050Z,1252.00
2023-03-23T21:31:32.926Z,1247.00
2023-03-23T21:35:32.928Z,1242.00
2023-03-23T21:39:32.848Z,1238.00
2023-03-23T21:43:32.832Z,1225.00
2023-03-23T21:47:32.805Z,1211.00
2023-03-23T21:51:32.760Z,1213.00
2023-03-23T21:55:32.701Z,1210.00
2023-03-23T21:59:32.696Z,1208.00
2023-03-23T22:03:32.658Z,1199.00
2023-03-23T22:07:32.641Z,1202.00
2023-03-23T22:11:32.602Z,1194.00
2023-03-23T22:15:32.529Z,1189.00
2023-03-23T22:19:32.496Z,1179.00
2023-03-23T22:23:32.471Z,1169.00
2023-03-23T22:27:32.455Z,1163.00
2023-03-23T22:31:32.436Z,1163.00
2023-03-23T22:35:32.369Z,1170.00
2023-03-23T22:39:32.334Z,1159.00
2023-03-23T22:43:32.308Z,1149.00
2023-03-23T22:47:32.278Z,1146.00
2023-03-23T22:51:32.231Z,1153.00
2023-03-23T22:55:32.190Z,1136.00
2023-03-23T22:59:32.169Z,1125.00
2023-03-23T23:03:32.219Z,1121.00
2023-03-23T23:07:32.229Z,1113.00
2023-03-23T23:11:32.346Z,1124.00
2023-03-23T23:15:32.435Z,1115.00
2023-03-23T23:19:32.543Z,1106.00
2023-03-23T23:23:32.561Z,1101.00
2023-03-23T23:27:32.621Z,1110.00
2023-03-23T23:31:32.690Z,1099.00
2023-03-23T23:35:32.774Z,1087.00
2023-03-23T23:39:32.852Z,1090.00
2023-03-23T23:43:32.927Z,1077.00
2023-03-23T23:47:33.087Z,1063.00
2023-03-23T23:51:33.143Z,1064.00
2023-03-23T23:55:33.191Z,1053.00
2023-03-23T23:59:33.298Z,1062.00
